Flight Track Log - Related Links

Times and Time Zones

All times are in EDT time to prevent confusion due to time zone crossing. See the ASQ6151 flight status page for this flight to view local times or setup timezone preferences in your user account.

Time Position Orientation Groundspeed Altitude Reporting Facility
EDT Latitude Longitude Course Direction KTS MPH feet Rate Location/Type
Sat 10:28:58 AM 36.1356 -80.1206 302° West 251 289 7,300  Level Atlanta Center
Sat 10:29:58 AM 36.1814 -80.1903 309° West 257 296 9,100 1,850 Climbing Atlanta Center
Sat 10:30:58 AM 36.2275 -80.2578 310° West 252 290 11,000 1,500 Climbing Atlanta Center
Sat 10:31:58 AM 36.2733 -80.3303 308° West 277 319 12,100 1,050 Climbing Atlanta Center
Sat 10:32:00 AM 36.3658 -80.4152 307° West  Level FlightAware Approximate
Sat 10:32:58 AM 36.3281 -80.4128 309° West 299 344 13,100  Level Atlanta Center
Sat 10:33:00 AM 36.4130 -80.4939 307° West  Level FlightAware Approximate
Sat 10:33:58 AM 36.3869 -80.5056 308° West 324 373 14,100  Level Atlanta Center
Sat 10:34:00 AM 36.4551 -80.5768 302° West  Level FlightAware Approximate
Sat 10:34:58 AM 36.4544 -80.6058 310° West 349 402 15,700  Level Atlanta Center
Sat 10:35:58 AM 36.5156 -80.6986 309° West 355 409 17,300 1,550 Climbing Atlanta Center
Sat 10:36:58 AM 36.5719 -80.7869 308° West 340 391 18,800 1,300 Climbing Atlanta Center
Sat 10:37:58 AM 36.6267 -80.8778 307° West 332 382 19,900 1,200 Climbing Atlanta Center
Sat 10:38:58 AM 36.6808 -80.9611 309° West 338 389 21,200 1,200 Climbing Atlanta Center
Sat 10:39:58 AM 36.7372 -81.0547 307° West 338 389 22,300 1,050 Climbing Atlanta Center
Sat 10:40:58 AM 36.7917 -81.1511 305° West 338 389 23,300 1,212 Climbing Atlanta Center
Sat 10:43:11 AM 36.9281 -81.3608 309° West 352 405 26,200 1,292 Climbing Indianapolis Center
Sat 10:44:13 AM 36.9944 -81.4714 307° West 340 391 27,500 878 Climbing Indianapolis Center
Sat 10:45:14 AM 37.0508 -81.5642 307° West 340 391 28,000 390 Climbing Indianapolis Center
Sat 10:46:16 AM 37.1161 -81.6597 311° West 360 414 28,300 774 Climbing Indianapolis Center
Sat 10:47:18 AM 37.1956 -81.7436 320° Northwest 373 429 29,600 1,366 Climbing Indianapolis Center
Sat 10:48:19 AM 37.2719 -81.8231 320° Northwest 360 414 31,100 1,561 Climbing Indianapolis Center
Sat 10:49:21 AM 37.3636 -81.9092 323° Northwest 354 407 32,800 1,306 Climbing Indianapolis Center
Sat 10:50:23 AM 37.4392 -81.9828 322° Northwest 346 398 33,800 927 Climbing Indianapolis Center
Sat 10:51:24 AM 37.5156 -82.0578 322° Northwest 349 402 34,700 976 Climbing Indianapolis Center
Sat 10:52:26 AM 37.5900 -82.1325 322° Northwest 345 397 35,800 634 Climbing Indianapolis Center
Sat 10:53:27 AM 37.6631 -82.2078 321° Northwest 343 395 36,000 98 Climbing Indianapolis Center
Sat 10:54:29 AM 37.7408 -82.2900 320° Northwest 362 417 36,000  Level Indianapolis Center
Sat 10:55:31 AM 37.8347 -82.3894 320° Northwest 375 432 36,000  Level Indianapolis Center
Sat 10:56:33 AM 37.9167 -82.4725 321° Northwest 379 436 36,000  Level Indianapolis Center
Sat 10:57:34 AM 37.9969 -82.5569 320° Northwest 376 433 36,000  Level Indianapolis Center
Sat 10:58:36 AM 38.0750 -82.6408 320° Northwest 369 425 36,000  Level Indianapolis Center
Sat 10:59:37 AM 38.1308 -82.7458 304° West 360 414 36,000  Level Indianapolis Center
Sat 11:00:39 AM 38.1872 -82.8497 305° West 357 411 36,000  Level Indianapolis Center
Sat 11:01:41 AM 38.2536 -82.9767 304° West 368 423 36,000  Level Indianapolis Center
Sat 11:02:42 AM 38.3111 -83.0858 304° West 372 428 36,000  Level Indianapolis Center
Sat 11:03:44 AM 38.3747 -83.1894 308° West 372 428 36,000  Level Indianapolis Center
Sat 11:04:46 AM 38.4544 -83.2786 319° Northwest 380 437 36,000  Level Indianapolis Center
Sat 11:05:47 AM 38.5200 -83.3517 319° Northwest 374 430 36,000  Level Indianapolis Center
Sat 11:06:49 AM 38.6122 -83.4572 318° Northwest 381 438 36,000  Level Indianapolis Center
Sat 11:07:50 AM 38.6964 -83.5533 318° Northwest 388 447 36,000  Level Indianapolis Center
Sat 11:08:52 AM 38.7792 -83.6469 319° Northwest 392 451 36,000  Level Indianapolis Center
Sat 11:09:53 AM 38.8628 -83.7422 318° Northwest 398 458 36,000  Level Indianapolis Center
Sat 11:10:55 AM 38.9472 -83.8394 318° Northwest 402 463 36,000  Level Indianapolis Center
Sat 11:11:57 AM 39.0331 -83.9403 318° Northwest 412 474 36,000 -293 Level Indianapolis Center
Sat 11:12:58 AM 39.1175 -84.0381 318° Northwest 405 466 35,400 -1,171 Descending Indianapolis Center
Sat 11:14:00 AM 39.2144 -84.1503 318° Northwest 399 459 33,600 -1,659 Descending Indianapolis Center
Sat 11:15:01 AM 39.3000 -84.2506 318° Northwest 408 470 32,000 -1,561 Descending Indianapolis Center
Sat 11:16:03 AM 39.3853 -84.3503 318° Northwest 410 472 30,400 -1,500 Descending Indianapolis Center
Sat 11:17:05 AM 39.4733 -84.4533 318° Northwest 419 482 28,900 -1,171 Descending Indianapolis Center
Sat 11:18:06 AM 39.5636 -84.5606 318° Northwest 430 495 28,000 -439 Descending Indianapolis Center
Sat 11:19:08 AM 39.6544 -84.6667 318° Northwest 433 498 28,000  Level Indianapolis Center
Sat 11:20:09 AM 39.7450 -84.7742 318° Northwest 434 499 28,000  Level Indianapolis Center
Sat 11:21:11 AM 39.8347 -84.8806 318° Northwest 432 497 28,000  Level Indianapolis Center
Sat 11:22:13 AM 39.9158 -84.9783 317° Northwest 428 493 28,000 -195 Level Indianapolis Center
Sat 11:23:14 AM 40.0189 -85.1025 317° Northwest 426 490 27,600 -780 Descending Indianapolis Center
Sat 11:24:16 AM 40.1064 -85.2094 317° Northwest 431 496 26,400 -780 Descending Indianapolis Center
Sat 11:25:17 AM 40.1931 -85.3125 318° Northwest 427 491 26,000 -195 Descending Indianapolis Center
Sat 11:26:19 AM 40.2783 -85.4172 317° Northwest 423 487 26,000  Level Indianapolis Center
Sat 11:27:00 AM 40.3297 -85.4781 318° Northwest 423 487 26,000  Level Chicago Center
Sat 11:28:01 AM 40.4344 -85.6050 317° Northwest 429 494 26,000 -439 Level Chicago Center
Sat 11:29:03 AM 40.5319 -85.6917 326° Northwest 441 507 25,100 -919 Descending Chicago Center
Sat 11:30:05 AM 40.6486 -85.7400 343° North 443 510 24,100 -823 Descending Chicago Center
Sat 11:31:07 AM 40.7631 -85.7961 340° North 439 505 23,400 -976 Descending Chicago Center
Sat 11:32:08 AM 40.8767 -85.8472 341° North 432 497 22,100 -683 Descending Chicago Center
Sat 11:33:10 AM 40.9858 -85.8969 341° North 418 481 22,000 -48 Descending Chicago Center
Sat 11:34:12 AM 41.0939 -85.9483 340° North 414 476 22,000  Level Chicago Center
Sat 11:35:13 AM 41.1694 -86.0828 307° West 378 435 22,000  Level Chicago Center
Sat 11:36:15 AM 41.2167 -86.2078 297° West 379 436 22,000 -774 Level Chicago Center
Sat 11:37:17 AM 41.2639 -86.3325 297° West 378 435 20,400 -1,935 Descending Chicago Center
Sat 11:38:19 AM 41.3094 -86.4528 297° West 368 423 18,000 -2,293 Descending Chicago Center
Sat 11:39:20 AM 41.3514 -86.5647 297° West 344 396 15,700 -2,244 Descending Chicago Center
Sat 11:40:22 AM 41.3925 -86.6725 297° West 331 381 13,400 -1,742 Descending Chicago Center
Sat 11:41:24 AM 41.4878 -86.7494 329° Northwest 342 394 12,100 -634 Descending Chicago Center
Sat 11:42:25 AM 41.5678 -86.7850 342° North 316 364 12,100  Level Chicago Center
Sat 11:43:27 AM 41.6478 -86.7931 356° North 295 339 12,100  Level Chicago Center
Sat 11:44:29 AM 41.7289 -86.8031 355° North 294 338 12,100  Level Chicago Center
Sat 11:45:30 AM 41.8089 -86.8169 353° North 292 336 12,100  Level Chicago Center
Sat 11:46:32 AM 41.8836 -86.8506 341° North 293 337 12,100 -488 Level Chicago Center
Sat 11:47:33 AM 41.9336 -86.9458 305° West 267 307 11,100 -927 Descending Chicago Center
Sat 11:48:35 AM 41.9550 -87.0228 291° West 223 257 10,200 -919 Descending Chicago Center
Sat 11:49:37 AM 41.9625 -87.0944 278° West 196 226 9,200 -878 Descending Chicago Center
Sat 11:50:38 AM 41.9683 -87.1572 277° West 176 203 8,400 -732 Descending Chicago Center
Sat 11:51:40 AM 41.9753 -87.2186 279° West 170 196 7,700 -677 Descending Chicago Center
Sat 11:52:42 AM 41.9800 -87.2769 276° West 161 185 7,000 -341 Descending Chicago Center
Sat 11:53:43 AM 41.9825 -87.3475 273° West 160 184 7,000  Level Chicago Center
Sat 11:54:45 AM 41.9822 -87.4042 270° West 155 178 7,000  Level Chicago Center
Sat 11:55:09 AM 41.9833 -87.4333 273° West 159 183 7,000 -357 Level Chicago TRACON
Sat 11:56:09 AM 41.9833 -87.4833 270° West 161 185 6,500 -579 Descending Chicago TRACON
Sat 11:57:03 AM 41.9833 -87.5333 270° West 157 181 5,900 -737 Descending Chicago TRACON
Sat 11:58:03 AM 41.9833 -87.6000 270° West 157 181 5,100 -900 Descending Chicago TRACON
Sat 11:59:03 AM 41.9833 -87.6500 270° West 152 175 4,100 -900 Descending Chicago TRACON
Sat 12:00:03 PM 41.9833 -87.7167 270° West 156 180 3,300 -842 Descending Chicago TRACON
Sat 12:00:57 PM 41.9833 -87.7667 270° West 152 175 2,500 -783 Descending Chicago TRACON
Sat 12:01:58 PM 41.9833 -87.8167 270° West 121 139 1,800 -694 Descending Chicago TRACON
Sat 12:02:58 PM 41.9833 -87.8667 270° West 117 135 1,100 -700 Descending Chicago TRACON
Sat 12:04:00 PM 41.9667 -87.9000 270° West  Level FlightAware Approximate
Sat 12:11:00 PM 41.9817 -87.9067 270° West  Level Estimated

Login

Don't have an account? Register now (free) for customized features, flight alerts, and more!